sensor_id;sensor_type;location;lat;lon;timestamp;temperature;humidity
50738;DHT22;36703;48.154;17.126;2023-09-19T00:00:27;26.80;54.20
50738;DHT22;36703;48.154;17.126;2023-09-19T00:04:31;26.80;54.20
50738;DHT22;36703;48.154;17.126;2023-09-19T00:08:34;26.80;54.10
50738;DHT22;36703;48.154;17.126;2023-09-19T00:12:35;26.70;54.20
50738;DHT22;36703;48.154;17.126;2023-09-19T00:16:37;26.60;54.30
50738;DHT22;36703;48.154;17.126;2023-09-19T00:20:39;26.60;54.60
50738;DHT22;36703;48.154;17.126;2023-09-19T00:24:40;26.60;54.70
50738;DHT22;36703;48.154;17.126;2023-09-19T00:28:42;26.60;54.70
50738;DHT22;36703;48.154;17.126;2023-09-19T00:32:45;26.60;54.70
50738;DHT22;36703;48.154;17.126;2023-09-19T00:36:48;26.60;54.70
50738;DHT22;36703;48.154;17.126;2023-09-19T00:40:50;26.60;55.00
50738;DHT22;36703;48.154;17.126;2023-09-19T00:44:55;26.50;55.20
50738;DHT22;36703;48.154;17.126;2023-09-19T00:48:56;26.60;55.70
50738;DHT22;36703;48.154;17.126;2023-09-19T00:52:59;26.60;55.90
50738;DHT22;36703;48.154;17.126;2023-09-19T00:57:00;26.50;56.10
50738;DHT22;36703;48.154;17.126;2023-09-19T01:01:02;26.40;56.00
50738;DHT22;36703;48.154;17.126;2023-09-19T01:05:11;26.40;56.10
50738;DHT22;36703;48.154;17.126;2023-09-19T01:09:16;26.40;56.20
50738;DHT22;36703;48.154;17.126;2023-09-19T01:13:36;26.40;56.30
50738;DHT22;36703;48.154;17.126;2023-09-19T01:18:00;26.40;56.10
50738;DHT22;36703;48.154;17.126;2023-09-19T01:22:29;26.40;56.10
50738;DHT22;36703;48.154;17.126;2023-09-19T01:31:00;26.10;56.60
50738;DHT22;36703;48.154;17.126;2023-09-19T01:35:04;25.90;57.00
50738;DHT22;36703;48.154;17.126;2023-09-19T01:39:08;25.80;57.60
50738;DHT22;36703;48.154;17.126;2023-09-19T01:43:22;25.70;57.90
50738;DHT22;36703;48.154;17.126;2023-09-19T01:47:46;25.60;58.10
50738;DHT22;36703;48.154;17.126;2023-09-19T01:52:00;25.30;60.30
50738;DHT22;36703;48.154;17.126;2023-09-19T01:56:09;25.10;72.90
50738;DHT22;36703;48.154;17.126;2023-09-19T02:00:15;24.90;76.00
50738;DHT22;36703;48.154;17.126;2023-09-19T02:12:27;24.50;91.60
50738;DHT22;36703;48.154;17.126;2023-09-19T03:55:24;23.00;93.50
50738;DHT22;36703;48.154;17.126;2023-09-19T03:59:26;23.00;69.30
50738;DHT22;36703;48.154;17.126;2023-09-19T04:03:28;22.90;64.40
50738;DHT22;36703;48.154;17.126;2023-09-19T04:07:36;22.90;63.80
50738;DHT22;36703;48.154;17.126;2023-09-19T04:11:37;22.90;63.50
50738;DHT22;36703;48.154;17.126;2023-09-19T04:15:39;22.80;63.50
50738;DHT22;36703;48.154;17.126;2023-09-19T04:19:42;22.80;64.00
50738;DHT22;36703;48.154;17.126;2023-09-19T04:23:43;22.70;64.90
50738;DHT22;36703;48.154;17.126;2023-09-19T04:27:45;22.70;66.60
50738;DHT22;36703;48.154;17.126;2023-09-19T04:31:47;22.70;66.40
50738;DHT22;36703;48.154;17.126;2023-09-19T04:35:50;22.80;66.80
50738;DHT22;36703;48.154;17.126;2023-09-19T04:39:52;22.80;66.40
50738;DHT22;36703;48.154;17.126;2023-09-19T04:43:53;22.90;66.30
50738;DHT22;36703;48.154;17.126;2023-09-19T04:47:56;22.90;66.20
50738;DHT22;36703;48.154;17.126;2023-09-19T04:51:58;22.90;66.20
50738;DHT22;36703;48.154;17.126;2023-09-19T04:55:59;22.80;66.40
50738;DHT22;36703;48.154;17.126;2023-09-19T05:00:01;22.70;66.60
50738;DHT22;36703;48.154;17.126;2023-09-19T05:04:04;22.80;66.80
50738;DHT22;36703;48.154;17.126;2023-09-19T05:08:06;22.80;66.60
50738;DHT22;36703;48.154;17.126;2023-09-19T05:12:09;22.80;66.70
50738;DHT22;36703;48.154;17.126;2023-09-19T05:16:11;22.80;66.50
50738;DHT22;36703;48.154;17.126;2023-09-19T05:20:13;22.90;66.50
50738;DHT22;36703;48.154;17.126;2023-09-19T05:24:17;23.00;66.30
50738;DHT22;36703;48.154;17.126;2023-09-19T05:28:19;23.00;66.40
50738;DHT22;36703;48.154;17.126;2023-09-19T05:32:20;23.00;66.40
50738;DHT22;36703;48.154;17.126;2023-09-19T05:36:24;23.00;66.20
50738;DHT22;36703;48.154;17.126;2023-09-19T05:40:26;23.00;66.20
50738;DHT22;36703;48.154;17.126;2023-09-19T05:44:28;22.90;66.20
50738;DHT22;36703;48.154;17.126;2023-09-19T05:48:30;22.90;66.10
50738;DHT22;36703;48.154;17.126;2023-09-19T05:52:31;22.90;66.20
50738;DHT22;36703;48.154;17.126;2023-09-19T05:56:33;22.80;66.20
50738;DHT22;36703;48.154;17.126;2023-09-19T06:00:34;22.80;66.30
50738;DHT22;36703;48.154;17.126;2023-09-19T06:04:36;22.80;66.60
50738;DHT22;36703;48.154;17.126;2023-09-19T06:08:40;22.80;66.50
50738;DHT22;36703;48.154;17.126;2023-09-19T06:12:42;22.90;66.50
50738;DHT22;36703;48.154;17.126;2023-09-19T06:16:47;23.00;66.40
50738;DHT22;36703;48.154;17.126;2023-09-19T06:20:49;22.90;66.40
50738;DHT22;36703;48.154;17.126;2023-09-19T06:24:52;22.90;66.50
50738;DHT22;36703;48.154;17.126;2023-09-19T06:28:54;22.90;66.50
50738;DHT22;36703;48.154;17.126;2023-09-19T06:32:57;22.90;66.90
50738;DHT22;36703;48.154;17.126;2023-09-19T06:36:59;23.00;67.30
50738;DHT22;36703;48.154;17.126;2023-09-19T06:41:02;23.00;66.50
50738;DHT22;36703;48.154;17.126;2023-09-19T06:45:08;23.10;66.40
50738;DHT22;36703;48.154;17.126;2023-09-19T06:49:12;23.20;67.00
50738;DHT22;36703;48.154;17.126;2023-09-19T06:53:16;23.20;66.20
50738;DHT22;36703;48.154;17.126;2023-09-19T06:57:19;23.30;66.20
50738;DHT22;36703;48.154;17.126;2023-09-19T07:01:21;23.30;66.00
50738;DHT22;36703;48.154;17.126;2023-09-19T07:05:22;23.30;66.00
50738;DHT22;36703;48.154;17.126;2023-09-19T07:09:24;23.30;65.80
50738;DHT22;36703;48.154;17.126;2023-09-19T07:13:28;23.40;65.80
50738;DHT22;36703;48.154;17.126;2023-09-19T07:17:30;23.40;66.00
50738;DHT22;36703;48.154;17.126;2023-09-19T07:21:31;23.40;65.80
50738;DHT22;36703;48.154;17.126;2023-09-19T07:25:36;23.50;65.60
50738;DHT22;36703;48.154;17.126;2023-09-19T07:29:38;23.50;65.50
50738;DHT22;36703;48.154;17.126;2023-09-19T07:33:40;23.50;65.60
50738;DHT22;36703;48.154;17.126;2023-09-19T07:37:43;23.60;65.40
50738;DHT22;36703;48.154;17.126;2023-09-19T07:41:44;23.60;65.20
50738;DHT22;36703;48.154;17.126;2023-09-19T07:45:46;23.80;65.10
50738;DHT22;36703;48.154;17.126;2023-09-19T07:49:48;24.00;64.70
50738;DHT22;36703;48.154;17.126;2023-09-19T07:53:49;24.10;64.30
50738;DHT22;36703;48.154;17.126;2023-09-19T07:57:54;24.20;64.00
50738;DHT22;36703;48.154;17.126;2023-09-19T08:01:55;24.20;63.90
50738;DHT22;36703;48.154;17.126;2023-09-19T08:05:57;24.30;63.90
50738;DHT22;36703;48.154;17.126;2023-09-19T08:09:59;24.30;64.70
50738;DHT22;36703;48.154;17.126;2023-09-19T08:14:00;24.30;63.60
50738;DHT22;36703;48.154;17.126;2023-09-19T08:18:02;24.30;63.50
50738;DHT22;36703;48.154;17.126;2023-09-19T08:22:03;24.30;63.30
50738;DHT22;36703;48.154;17.126;2023-09-19T08:26:05;24.30;63.40
50738;DHT22;36703;48.154;17.126;2023-09-19T08:30:10;24.50;63.10
50738;DHT22;36703;48.154;17.126;2023-09-19T08:34:12;24.50;62.70
50738;DHT22;36703;48.154;17.126;2023-09-19T08:38:13;24.50;62.60
50738;DHT22;36703;48.154;17.126;2023-09-19T08:42:15;24.40;62.60
50738;DHT22;36703;48.154;17.126;2023-09-19T08:46:18;24.40;62.60
50738;DHT22;36703;48.154;17.126;2023-09-19T08:50:28;24.50;62.40
50738;DHT22;36703;48.154;17.126;2023-09-19T08:54:34;24.50;62.00
50738;DHT22;36703;48.154;17.126;2023-09-19T08:58:51;24.60;61.80
50738;DHT22;36703;48.154;17.126;2023-09-19T09:02:56;24.60;61.80
50738;DHT22;36703;48.154;17.126;2023-09-19T09:06:59;24.60;61.80
50738;DHT22;36703;48.154;17.126;2023-09-19T09:11:02;24.70;61.70
50738;DHT22;36703;48.154;17.126;2023-09-19T09:15:04;24.70;61.80
50738;DHT22;36703;48.154;17.126;2023-09-19T09:19:06;24.80;61.30
50738;DHT22;36703;48.154;17.126;2023-09-19T09:23:07;24.90;61.30
50738;DHT22;36703;48.154;17.126;2023-09-19T09:27:12;24.90;61.10
50738;DHT22;36703;48.154;17.126;2023-09-19T09:31:24;24.90;61.10
50738;DHT22;36703;48.154;17.126;2023-09-19T09:35:26;24.90;60.80
50738;DHT22;36703;48.154;17.126;2023-09-19T09:39:30;24.90;60.90
50738;DHT22;36703;48.154;17.126;2023-09-19T09:43:37;25.00;60.70
50738;DHT22;36703;48.154;17.126;2023-09-19T09:47:48;25.30;60.60
50738;DHT22;36703;48.154;17.126;2023-09-19T09:52:04;25.10;60.10
50738;DHT22;36703;48.154;17.126;2023-09-19T09:56:18;25.10;60.00
50738;DHT22;36703;48.154;17.126;2023-09-19T10:00:19;25.10;59.90
50738;DHT22;36703;48.154;17.126;2023-09-19T10:04:28;25.20;59.70
50738;DHT22;36703;48.154;17.126;2023-09-19T10:08:37;25.20;59.30
50738;DHT22;36703;48.154;17.126;2023-09-19T10:12:42;25.30;59.20
50738;DHT22;36703;48.154;17.126;2023-09-19T10:16:48;25.20;59.00
50738;DHT22;36703;48.154;17.126;2023-09-19T10:20:50;25.20;59.10
50738;DHT22;36703;48.154;17.126;2023-09-19T10:24:57;25.20;59.00
50738;DHT22;36703;48.154;17.126;2023-09-19T10:29:01;25.30;58.90
50738;DHT22;36703;48.154;17.126;2023-09-19T10:33:05;25.40;59.70
50738;DHT22;36703;48.154;17.126;2023-09-19T10:37:12;25.40;58.80
50738;DHT22;36703;48.154;17.126;2023-09-19T10:41:16;25.40;59.40
50738;DHT22;36703;48.154;17.126;2023-09-19T10:45:21;25.60;58.80
50738;DHT22;36703;48.154;17.126;2023-09-19T10:49:23;25.70;58.70
50738;DHT22;36703;48.154;17.126;2023-09-19T10:53:27;26.00;58.60
50738;DHT22;36703;48.154;17.126;2023-09-19T10:57:30;26.50;58.00
50738;DHT22;36703;48.154;17.126;2023-09-19T11:01:52;26.70;57.70
50738;DHT22;36703;48.154;17.126;2023-09-19T11:06:02;27.40;56.90
50738;DHT22;36703;48.154;17.126;2023-09-19T11:10:06;27.90;55.70
50738;DHT22;36703;48.154;17.126;2023-09-19T11:27:14;28.90;54.40
50738;DHT22;36703;48.154;17.126;2023-09-19T11:31:43;29.30;53.60
50738;DHT22;36703;48.154;17.126;2023-09-19T11:40:07;29.70;52.30
50738;DHT22;36703;48.154;17.126;2023-09-19T11:48:19;30.20;50.50
50738;DHT22;36703;48.154;17.126;2023-09-19T11:52:25;30.20;49.60
50738;DHT22;36703;48.154;17.126;2023-09-19T11:56:27;30.20;49.90
50738;DHT22;36703;48.154;17.126;2023-09-19T12:00:30;30.30;49.50
50738;DHT22;36703;48.154;17.126;2023-09-19T12:04:41;30.00;48.80
50738;DHT22;36703;48.154;17.126;2023-09-19T12:08:44;29.50;49.10
50738;DHT22;36703;48.154;17.126;2023-09-19T12:12:48;29.10;49.70
50738;DHT22;36703;48.154;17.126;2023-09-19T12:16:58;29.00;50.00
50738;DHT22;36703;48.154;17.126;2023-09-19T12:21:01;29.00;50.00
50738;DHT22;36703;48.154;17.126;2023-09-19T12:25:06;29.00;50.00
50738;DHT22;36703;48.154;17.126;2023-09-19T12:29:16;28.80;49.90
50738;DHT22;36703;48.154;17.126;2023-09-19T12:33:26;29.00;49.90
50738;DHT22;36703;48.154;17.126;2023-09-19T12:37:28;29.10;49.40
50738;DHT22;36703;48.154;17.126;2023-09-19T12:41:31;28.90;49.50
50738;DHT22;36703;48.154;17.126;2023-09-19T12:45:33;28.70;49.50
50738;DHT22;36703;48.154;17.126;2023-09-19T12:49:36;28.60;49.60
50738;DHT22;36703;48.154;17.126;2023-09-19T12:54:18;28.40;49.70
50738;DHT22;36703;48.154;17.126;2023-09-19T12:58:20;28.30;50.00
50738;DHT22;36703;48.154;17.126;2023-09-19T13:02:22;28.20;49.90
50738;DHT22;36703;48.154;17.126;2023-09-19T13:06:37;28.20;49.90
50738;DHT22;36703;48.154;17.126;2023-09-19T13:11:19;28.00;49.90
50738;DHT22;36703;48.154;17.126;2023-09-19T13:15:21;27.90;50.20
50738;DHT22;36703;48.154;17.126;2023-09-19T13:19:39;27.90;50.40
50738;DHT22;36703;48.154;17.126;2023-09-19T13:23:42;28.10;50.70
50738;DHT22;36703;48.154;17.126;2023-09-19T13:27:55;28.30;50.80
50738;DHT22;36703;48.154;17.126;2023-09-19T13:31:57;28.50;50.40
50738;DHT22;36703;48.154;17.126;2023-09-19T13:35:59;28.60;50.40
50738;DHT22;36703;48.154;17.126;2023-09-19T13:40:00;28.50;50.50
50738;DHT22;36703;48.154;17.126;2023-09-19T13:44:03;28.30;50.70
50738;DHT22;36703;48.154;17.126;2023-09-19T13:48:05;28.20;51.00
50738;DHT22;36703;48.154;17.126;2023-09-19T13:52:07;28.00;51.50
50738;DHT22;36703;48.154;17.126;2023-09-19T13:56:10;27.70;52.10
50738;DHT22;36703;48.154;17.126;2023-09-19T14:00:12;27.50;52.90
50738;DHT22;36703;48.154;17.126;2023-09-19T14:04:17;27.20;53.30
50738;DHT22;36703;48.154;17.126;2023-09-19T14:08:19;27.00;54.10
50738;DHT22;36703;48.154;17.126;2023-09-19T14:12:21;26.90;54.30
50738;DHT22;36703;48.154;17.126;2023-09-19T14:16:23;26.90;54.70
50738;DHT22;36703;48.154;17.126;2023-09-19T14:20:26;26.80;55.00
50738;DHT22;36703;48.154;17.126;2023-09-19T14:24:27;26.80;55.10
50738;DHT22;36703;48.154;17.126;2023-09-19T14:28:29;26.80;55.50
50738;DHT22;36703;48.154;17.126;2023-09-19T14:32:31;26.80;55.70
50738;DHT22;36703;48.154;17.126;2023-09-19T14:36:32;26.70;55.90
50738;DHT22;36703;48.154;17.126;2023-09-19T14:40:34;26.70;56.00
50738;DHT22;36703;48.154;17.126;2023-09-19T14:44:37;28.10;56.80
50738;DHT22;36703;48.154;17.126;2023-09-19T14:48:39;26.80;56.10
50738;DHT22;36703;48.154;17.126;2023-09-19T14:52:41;26.80;55.70
50738;DHT22;36703;48.154;17.126;2023-09-19T14:56:43;26.80;55.60
50738;DHT22;36703;48.154;17.126;2023-09-19T15:00:44;26.80;55.50
50738;DHT22;36703;48.154;17.126;2023-09-19T15:04:46;26.60;55.10
50738;DHT22;36703;48.154;17.126;2023-09-19T15:08:49;26.50;55.00
50738;DHT22;36703;48.154;17.126;2023-09-19T15:12:51;26.40;55.00
50738;DHT22;36703;48.154;17.126;2023-09-19T15:16:53;26.30;55.10
50738;DHT22;36703;48.154;17.126;2023-09-19T15:20:55;26.30;55.20
50738;DHT22;36703;48.154;17.126;2023-09-19T15:24:56;26.30;55.20
50738;DHT22;36703;48.154;17.126;2023-09-19T15:28:58;26.40;55.10
50738;DHT22;36703;48.154;17.126;2023-09-19T15:33:00;26.40;55.00
50738;DHT22;36703;48.154;17.126;2023-09-19T15:37:01;26.40;55.00
50738;DHT22;36703;48.154;17.126;2023-09-19T15:41:03;26.40;55.00
50738;DHT22;36703;48.154;17.126;2023-09-19T15:45:05;26.40;54.80
50738;DHT22;36703;48.154;17.126;2023-09-19T15:49:07;26.40;55.00
50738;DHT22;36703;48.154;17.126;2023-09-19T15:53:09;26.30;54.80
50738;DHT22;36703;48.154;17.126;2023-09-19T15:57:10;26.20;54.80
50738;DHT22;36703;48.154;17.126;2023-09-19T16:01:14;26.30;54.80
50738;DHT22;36703;48.154;17.126;2023-09-19T16:05:16;26.30;54.70
50738;DHT22;36703;48.154;17.126;2023-09-19T16:09:18;26.30;54.80
50738;DHT22;36703;48.154;17.126;2023-09-19T16:13:19;26.40;54.90
50738;DHT22;36703;48.154;17.126;2023-09-19T16:17:21;26.40;54.80
50738;DHT22;36703;48.154;17.126;2023-09-19T16:21:24;26.40;54.60
50738;DHT22;36703;48.154;17.126;2023-09-19T16:25:27;26.40;54.30
50738;DHT22;36703;48.154;17.126;2023-09-19T16:29:29;26.40;54.50
50738;DHT22;36703;48.154;17.126;2023-09-19T16:33:37;26.40;54.50
50738;DHT22;36703;48.154;17.126;2023-09-19T16:37:41;26.40;54.30
50738;DHT22;36703;48.154;17.126;2023-09-19T16:41:43;26.50;54.50
50738;DHT22;36703;48.154;17.126;2023-09-19T16:45:58;26.50;54.60
50738;DHT22;36703;48.154;17.126;2023-09-19T16:50:01;26.40;54.40
50738;DHT22;36703;48.154;17.126;2023-09-19T16:54:02;26.40;54.60
50738;DHT22;36703;48.154;17.126;2023-09-19T16:58:04;26.30;54.60
50738;DHT22;36703;48.154;17.126;2023-09-19T17:02:06;26.20;54.90
50738;DHT22;36703;48.154;17.126;2023-09-19T17:06:13;26.10;54.90
50738;DHT22;36703;48.154;17.126;2023-09-19T17:10:16;26.00;55.00
50738;DHT22;36703;48.154;17.126;2023-09-19T17:14:19;26.00;55.20
50738;DHT22;36703;48.154;17.126;2023-09-19T17:18:20;25.90;55.40
50738;DHT22;36703;48.154;17.126;2023-09-19T17:22:22;25.90;55.60
50738;DHT22;36703;48.154;17.126;2023-09-19T17:26:24;26.00;55.80
50738;DHT22;36703;48.154;17.126;2023-09-19T17:30:26;26.00;55.60
50738;DHT22;36703;48.154;17.126;2023-09-19T17:34:28;25.80;55.50
50738;DHT22;36703;48.154;17.126;2023-09-19T17:38:29;25.70;55.80
50738;DHT22;36703;48.154;17.126;2023-09-19T17:42:31;25.60;56.00
50738;DHT22;36703;48.154;17.126;2023-09-19T17:46:32;25.40;56.80
50738;DHT22;36703;48.154;17.126;2023-09-19T17:50:35;25.10;57.60
50738;DHT22;36703;48.154;17.126;2023-09-19T17:54:40;25.00;58.30
50738;DHT22;36703;48.154;17.126;2023-09-19T17:58:42;24.80;59.00
50738;DHT22;36703;48.154;17.126;2023-09-19T18:02:46;24.70;59.20
50738;DHT22;36703;48.154;17.126;2023-09-19T18:06:47;24.60;59.80
50738;DHT22;36703;48.154;17.126;2023-09-19T18:10:49;24.50;60.10
50738;DHT22;36703;48.154;17.126;2023-09-19T18:14:51;24.40;60.50
50738;DHT22;36703;48.154;17.126;2023-09-19T18:18:53;24.30;60.90
50738;DHT22;36703;48.154;17.126;2023-09-19T18:22:54;24.30;61.00
50738;DHT22;36703;48.154;17.126;2023-09-19T18:26:56;24.30;61.20
50738;DHT22;36703;48.154;17.126;2023-09-19T18:30:58;24.20;61.50
50738;DHT22;36703;48.154;17.126;2023-09-19T18:35:00;24.10;61.70
50738;DHT22;36703;48.154;17.126;2023-09-19T18:39:01;24.20;61.90
50738;DHT22;36703;48.154;17.126;2023-09-19T18:43:05;24.20;61.70
50738;DHT22;36703;48.154;17.126;2023-09-19T18:47:06;24.10;61.90
50738;DHT22;36703;48.154;17.126;2023-09-19T18:51:08;23.90;62.50
50738;DHT22;36703;48.154;17.126;2023-09-19T18:55:11;24.00;62.70
50738;DHT22;36703;48.154;17.126;2023-09-19T18:59:12;24.00;62.50
50738;DHT22;36703;48.154;17.126;2023-09-19T19:03:15;23.90;62.60
50738;DHT22;36703;48.154;17.126;2023-09-19T19:07:17;23.80;62.80
50738;DHT22;36703;48.154;17.126;2023-09-19T19:11:23;23.80;62.90
50738;DHT22;36703;48.154;17.126;2023-09-19T19:15:26;23.70;63.10
50738;DHT22;36703;48.154;17.126;2023-09-19T19:19:28;23.70;63.40
50738;DHT22;36703;48.154;17.126;2023-09-19T19:23:31;23.70;63.40
50738;DHT22;36703;48.154;17.126;2023-09-19T19:27:32;23.80;63.20
50738;DHT22;36703;48.154;17.126;2023-09-19T19:31:34;23.90;63.30
50738;DHT22;36703;48.154;17.126;2023-09-19T19:35:38;24.10;62.20
50738;DHT22;36703;48.154;17.126;2023-09-19T19:39:41;24.20;61.10
50738;DHT22;36703;48.154;17.126;2023-09-19T19:43:43;24.30;60.30
50738;DHT22;36703;48.154;17.126;2023-09-19T19:47:44;24.30;59.40
50738;DHT22;36703;48.154;17.126;2023-09-19T19:51:47;24.30;59.00
50738;DHT22;36703;48.154;17.126;2023-09-19T19:55:51;24.40;58.40
50738;DHT22;36703;48.154;17.126;2023-09-19T19:59:52;24.30;58.00
50738;DHT22;36703;48.154;17.126;2023-09-19T20:03:55;24.20;57.60
50738;DHT22;36703;48.154;17.126;2023-09-19T20:07:57;24.30;57.50
50738;DHT22;36703;48.154;17.126;2023-09-19T20:11:58;24.30;57.10
50738;DHT22;36703;48.154;17.126;2023-09-19T20:16:00;24.30;56.90
50738;DHT22;36703;48.154;17.126;2023-09-19T20:20:07;24.40;56.80
50738;DHT22;36703;48.154;17.126;2023-09-19T20:24:19;24.50;56.20
50738;DHT22;36703;48.154;17.126;2023-09-19T20:28:24;24.50;55.90
50738;DHT22;36703;48.154;17.126;2023-09-19T20:32:26;24.50;55.90
50738;DHT22;36703;48.154;17.126;2023-09-19T20:36:27;24.40;55.60
50738;DHT22;36703;48.154;17.126;2023-09-19T20:40:29;24.40;55.40
50738;DHT22;36703;48.154;17.126;2023-09-19T20:44:31;24.40;55.40
50738;DHT22;36703;48.154;17.126;2023-09-19T20:48:33;24.40;55.30
50738;DHT22;36703;48.154;17.126;2023-09-19T20:52:36;24.40;55.30
50738;DHT22;36703;48.154;17.126;2023-09-19T20:56:38;24.40;55.40
50738;DHT22;36703;48.154;17.126;2023-09-19T21:00:40;24.30;55.40
50738;DHT22;36703;48.154;17.126;2023-09-19T21:04:43;24.20;55.80
50738;DHT22;36703;48.154;17.126;2023-09-19T21:08:44;23.90;55.80
50738;DHT22;36703;48.154;17.126;2023-09-19T21:12:46;23.80;56.30
50738;DHT22;36703;48.154;17.126;2023-09-19T21:16:49;23.70;56.40
50738;DHT22;36703;48.154;17.126;2023-09-19T21:20:51;23.70;56.50
50738;DHT22;36703;48.154;17.126;2023-09-19T21:24:53;23.70;56.40
50738;DHT22;36703;48.154;17.126;2023-09-19T21:28:56;23.80;56.30
50738;DHT22;36703;48.154;17.126;2023-09-19T21:32:58;23.90;56.10
50738;DHT22;36703;48.154;17.126;2023-09-19T21:37:00;24.00;55.80
50738;DHT22;36703;48.154;17.126;2023-09-19T21:41:08;24.10;55.50
50738;DHT22;36703;48.154;17.126;2023-09-19T21:45:12;24.20;54.90
50738;DHT22;36703;48.154;17.126;2023-09-19T21:49:15;24.20;54.70
50738;DHT22;36703;48.154;17.126;2023-09-19T21:53:17;24.30;54.30
50738;DHT22;36703;48.154;17.126;2023-09-19T21:57:20;24.20;54.00
50738;DHT22;36703;48.154;17.126;2023-09-19T22:01:21;24.10;53.90
50738;DHT22;36703;48.154;17.126;2023-09-19T22:05:26;24.00;53.70
50738;DHT22;36703;48.154;17.126;2023-09-19T22:09:28;23.80;53.90
50738;DHT22;36703;48.154;17.126;2023-09-19T22:13:30;23.60;54.40
50738;DHT22;36703;48.154;17.126;2023-09-19T22:17:31;23.50;54.70
50738;DHT22;36703;48.154;17.126;2023-09-19T22:21:33;23.40;55.10
50738;DHT22;36703;48.154;17.126;2023-09-19T22:25:47;23.30;55.50
50738;DHT22;36703;48.154;17.126;2023-09-19T22:29:49;23.20;55.90
50738;DHT22;36703;48.154;17.126;2023-09-19T22:33:52;23.30;56.20
50738;DHT22;36703;48.154;17.126;2023-09-19T22:37:55;23.30;56.30
50738;DHT22;36703;48.154;17.126;2023-09-19T22:41:57;23.30;56.50
50738;DHT22;36703;48.154;17.126;2023-09-19T22:46:13;23.30;56.60
50738;DHT22;36703;48.154;17.126;2023-09-19T22:50:15;23.40;56.70
50738;DHT22;36703;48.154;17.126;2023-09-19T22:54:17;23.50;56.80
50738;DHT22;36703;48.154;17.126;2023-09-19T22:58:26;23.60;56.80
50738;DHT22;36703;48.154;17.126;2023-09-19T23:02:30;23.60;56.50
50738;DHT22;36703;48.154;17.126;2023-09-19T23:06:32;23.70;56.30
50738;DHT22;36703;48.154;17.126;2023-09-19T23:10:40;23.80;55.90
50738;DHT22;36703;48.154;17.126;2023-09-19T23:14:45;23.80;55.60
50738;DHT22;36703;48.154;17.126;2023-09-19T23:18:47;23.90;55.50
50738;DHT22;36703;48.154;17.126;2023-09-19T23:22:52;24.00;55.30
50738;DHT22;36703;48.154;17.126;2023-09-19T23:26:57;24.00;55.20
50738;DHT22;36703;48.154;17.126;2023-09-19T23:31:00;24.00;55.10
50738;DHT22;36703;48.154;17.126;2023-09-19T23:35:02;24.10;55.00
50738;DHT22;36703;48.154;17.126;2023-09-19T23:39:04;23.90;54.80
50738;DHT22;36703;48.154;17.126;2023-09-19T23:43:09;23.80;55.00
50738;DHT22;36703;48.154;17.126;2023-09-19T23:47:15;23.80;55.20
50738;DHT22;36703;48.154;17.126;2023-09-19T23:51:19;23.90;55.20
50738;DHT22;36703;48.154;17.126;2023-09-19T23:55:24;23.90;55.20
50738;DHT22;36703;48.154;17.126;2023-09-19T23:59:26;23.90;55.20
